Richmond, VA (23229)

9:55 PM EDT on March 29, 2015 (GMT -0400)
Windsor Farms | | Change Station
CLOSE
Current Station
Personal Weather Station
Location: Richmond, VA
Elevation: 242 ft
Nearby Weather Stations

Elev 242 ft 37.56 °N, 77.50 °W | Updated 4 minutes ago

Partly Cloudy
Partly Cloudy
40.7 °F
Feels Like 41 °F
N
0.0
Wind Variable Wind from ENE
Gusts 1.0 mph

Today
High -- | Low -- °F
--% Chance of Precip.
Yesterday
High -- | Low -- °F
Precip. -- in
7:00 AM 7:29 PM
Waxing Gibbous, 76% visible
Pressure 30.25 in
Visibility 10.0 miles
Clouds Mostly Cloudy 30000 ft
Windchill 41 °F
Dew Point 14 °F
Humidity 34%
Rainfall 0.00 in
Snow Depth Not available.
UV 0 out of 12
Pollen 8.50 out of 12
Air Quality Not available.
Flu Activity Not available.
METAR KRIC 300054Z 16004KT 10SM BKN300 04/M10 A3023 RMK AO2 SLP242 T00441100

More Conditions Fewer Conditions

Pressure 30.25 in
Visibility 10.0 miles
Clouds Mostly Cloudy 30000 ft
Windchill 41 °F
Dew Point 14 °F
Humidity 34%
Rainfall 0.00 in
Snow Depth Not available.
UV 0 out of 12
Pollen 8.50 out of 12
Air Quality Not available.
Flu Activity Not available.
METAR KRIC 300054Z 16004KT 10SM BKN300 04/M10 A3023 RMK AO2 SLP242 T00441100

More Conditions Fewer Conditions

10-Day Weather Forecast

Almanac

Astronomy

Mar. 29, 2015 Rise Set
Actual Time
Civil Twilight
Nautical Twilight
Astronomical Twilight
Moon
Length of Visible Light
Length of Day
Tomorrow will be .
, % of the Moon is Illuminated

Today's Extremes

State Highs State Lows

Community

WunderPhotos

Upload Photos

1,809,397 photos uploaded!

WunderBlogs® & News

Nearby

Air Quality

  Air Quality AQ Index Pollutant
Not available.

Snow Depth

Station Depth Elevation

Earthquake Activity

City Distance Mag. Time & Date
Minimum magnitude displayed is 2.5.

Coastal Water Temperatures

Place Temperature

Stations

Nearby Weather Stations

Station Location Temp. Windchill Dew Point Humidity Wind Precip. Elev Updated Type